Time;durP1;ratioP1;P1;durP2;ratioP2;P2;SDS_P1;SDS_P2;PMS_P1;PMS_P2;Temp;Humidity;BMP_temperature;BMP_pressure;BME280_temperature;BME280_humidity;BME280_pressure;Samples;Min_cycle;Max_cycle;Signal;HPM_P1;HPM_P2
2022/11/03 00:01:55;;;;;;;;;;;;;;;-144.99;80.42;52480.72;5077057;28;20072;-69
2022/11/03 00:04:22;;;;;;;;;;;;;;;-144.99;80.33;52444.03;5089812;28;19967;-71
2022/11/03 00:06:50;;;;;;;;;;;;;;;-144.99;79.98;52448.09;5092479;28;19929;-72
2022/11/03 00:09:17;;;;;;;;;;;;;;;-144.99;79.55;52474.59;5074227;28;20008;-68
2022/11/03 00:11:44;;;;;;;;;;;;;;;-144.99;80.16;52494.97;5076192;28;19939;-67
2022/11/03 00:14:11;;;;;;;;;;;;;;;-144.99;79.81;52460.31;5096547;28;20054;-70
2022/11/03 00:16:38;;;;;;;;;;;;;;;-144.99;79.69;52460.31;5073897;28;19975;-70
2022/11/03 00:19:05;;;;;;;;;;;;;;;-144.99;79.35;52462.34;5074596;28;20039;-72
2022/11/03 00:21:31;;;;;;;;;;;;;;;-144.99;79.27;52480.72;5072731;28;20031;-70
2022/11/03 00:24:01;;;;;;;;;;;;;;;-144.99;80.18;52435.88;5074871;28;20343;-71
2022/11/03 00:26:28;;;;;;;;;;;;;;;-144.99;80.25;52492.94;5071142;28;20023;-71
2022/11/03 00:28:55;;;;;;;;;;;;;;;-144.99;80.15;52452.16;5076360;28;19940;-71
2022/11/03 00:31:23;;;;;;;;;;;;;;;-144.99;80.54;52431.78;5074125;28;19950;-70
2022/11/03 00:33:50;;;;;;;;;;;;;;;-144.99;80.22;52423.63;5084952;28;19946;-71
2022/11/03 00:36:17;;;;;;;;;;;;;;;-144.99;80.59;52472.56;5083028;28;19989;-71
2022/11/03 00:38:44;;;;;;;;;;;;;;;-144.99;80.49;52417.53;5078749;28;19925;-69
2022/11/03 00:41:13;;;;;;;;;;;;;;;-144.99;80.37;52482.75;5085395;28;20000;-71
2022/11/03 00:43:39;;;;;;;;;;;;;;;-144.99;80.24;52456.25;5077574;28;19943;-71
2022/11/03 00:46:07;;;;;;;;;;;;;;;-144.99;80.45;52435.88;5081099;28;19982;-73
2022/11/03 00:48:33;;;;;;;;;;;;;;;-144.99;80.58;52452.16;5094944;28;20471;-72
2022/11/03 00:51:00;;;;;;;;;;;;;;;-144.99;80.51;52492.94;5076536;28;19942;-72
2022/11/03 00:53:27;;;;;;;;;;;;;;;-144.99;80.45;52413.44;5079754;28;19935;-72
2022/11/03 00:55:53;;;;;;;;;;;;;;;-144.99;80.33;52399.19;5090207;28;20025;-72
2022/11/03 00:58:22;;;;;;;;;;;;;;;-144.99;80.02;52456.25;5085903;28;20019;-73
2022/11/03 01:00:48;;;;;;;;;;;;;;;-144.99;80.11;52441.97;5076242;28;20367;-71
2022/11/03 01:03:14;;;;;;;;;;;;;;;-144.99;79.80;52452.16;5074418;28;19980;-73
2022/11/03 01:08:25;;;;;;;;;;;;;;;-144.99;80.20;52450.13;5090583;28;19935;-71
2022/11/03 01:13:33;;;;;;;;;;;;;;;-144.99;80.17;52476.63;5071709;28;20003;-71
2022/11/03 01:16:00;;;;;;;;;;;;;;;-144.99;80.41;52456.25;5083819;28;20028;-72
2022/11/03 01:18:26;;;;;;;;;;;;;;;-144.99;80.57;52452.16;5078067;28;19941;-72
2022/11/03 01:20:56;;;;;;;;;;;;;;;-144.99;80.61;52444.03;5073864;28;19993;-72
2022/11/03 01:23:22;;;;;;;;;;;;;;;-144.99;80.46;52431.78;5069528;28;19956;-70
2022/11/03 01:25:49;;;;;;;;;;;;;;;-144.99;80.76;52431.78;5082949;28;19958;-70
2022/11/03 01:28:15;;;;;;;;;;;;;;;-144.99;80.87;52452.16;5083348;28;20058;-72
2022/11/03 01:30:43;;;;;;;;;;;;;;;-144.99;80.81;52435.88;5075981;28;19943;-73
2022/11/03 01:33:09;;;;;;;;;;;;;;;-144.99;80.20;52431.78;5073467;28;19989;-73
2022/11/03 01:35:36;;;;;;;;;;;;;;;-144.99;79.95;52454.22;5080094;28;20019;-71
2022/11/03 01:38:02;;;;;;;;;;;;;;;-144.99;80.10;52433.81;5087630;28;20070;-71
2022/11/03 01:40:29;;;;;;;;;;;;;;;-144.99;80.35;52452.16;5078408;28;19954;-72
2022/11/03 01:42:56;;;;;;;;;;;;;;;-144.99;80.41;52448.09;5080040;28;19963;-71
2022/11/03 01:45:22;;;;;;;;;;;;;;;-144.99;79.60;52427.72;5078669;28;19976;-73
2022/11/03 01:47:50;;;;;;;;;;;;;;;-144.99;79.71;52403.25;5083820;28;19981;-73
2022/11/03 01:50:18;;;;;;;;;;;;;;;-144.99;79.85;52456.25;5079576;28;19988;-74
2022/11/03 01:52:47;;;;;;;;;;;;;;;-144.99;79.66;52419.56;5078298;28;19946;-73
2022/11/03 01:55:16;;;;;;;;;;;;;;;-144.99;79.90;52444.03;5070440;28;20033;-71
2022/11/03 01:57:45;;;;;;;;;;;;;;;-144.99;79.29;52431.78;5082704;28;19955;-71
2022/11/03 02:00:12;;;;;;;;;;;;;;;-144.99;79.28;52407.31;5074101;28;20398;-71
2022/11/03 02:02:38;;;;;;;;;;;;;;;-144.99;79.33;52431.78;5084208;28;19943;-71
2022/11/03 02:05:07;;;;;;;;;;;;;;;-144.99;79.25;52435.88;5105475;28;19976;-72
2022/11/03 02:07:36;;;;;;;;;;;;;;;-144.99;78.98;52484.78;5098875;28;19976;-72
2022/11/03 02:10:03;;;;;;;;;;;;;;;-144.99;78.66;52439.94;5083965;28;19987;-71
2022/11/03 02:12:30;;;;;;;;;;;;;;;-144.99;78.71;52417.53;5072223;28;20105;-69
2022/11/03 02:14:58;;;;;;;;;;;;;;;-144.99;78.25;52448.09;5079234;28;20011;-71
2022/11/03 02:17:27;;;;;;;;;;;;;;;-144.99;78.57;52423.63;5082803;28;20037;-71
2022/11/03 02:19:56;;;;;;;;;;;;;;;-144.99;79.03;52431.78;5083154;28;19940;-71
2022/11/03 02:22:41;;;;;;;;;;;;;;;-144.99;78.79;52435.88;5070340;28;20294;-70
2022/11/03 02:25:14;;;;;;;;;;;;;;;-144.99;78.43;52448.09;5077924;28;19948;-71
2022/11/03 02:27:42;;;;;;;;;;;;;;;-144.99;78.49;52399.19;5087717;28;19959;-74
2022/11/03 02:30:09;;;;;;;;;;;;;;;-144.99;79.04;52441.97;5078025;28;20055;-74
2022/11/03 02:32:40;;;;;;;;;;;;;;;-144.99;78.93;52466.44;5075972;28;19949;-75
2022/11/03 02:35:11;;;;;;;;;;;;;;;-144.99;79.00;52448.09;5084717;28;19977;-73
2022/11/03 02:37:39;;;;;;;;;;;;;;;-144.99;78.57;52472.56;5083964;28;19958;-74
2022/11/03 02:40:07;;;;;;;;;;;;;;;-144.99;78.80;52484.78;5085326;28;19924;-73
2022/11/03 02:42:35;;;;;;;;;;;;;;;-144.99;78.47;52415.47;5086795;28;19928;-73
2022/11/03 02:45:07;;;;;;;;;;;;;;;-144.99;77.67;52429.75;5090308;28;20041;-71
2022/11/03 02:47:34;;;;;;;;;;;;;;;-144.99;77.58;52419.56;5080119;28;19935;-73
2022/11/03 02:50:06;;;;;;;;;;;;;;;-144.99;77.84;52456.25;5076328;28;20014;-74
2022/11/03 02:52:37;;;;;;;;;;;;;;;-144.99;77.63;52413.44;5086626;28;19945;-73
2022/11/03 02:55:07;;;;;;;;;;;;;;;-144.99;77.90;52439.94;5084396;28;19986;-73
2022/11/03 02:57:36;;;;;;;;;;;;;;;-144.99;77.80;52456.25;5088912;28;20366;-72
2022/11/03 03:00:05;;;;;;;;;;;;;;;-144.99;77.79;52427.72;5090910;28;19980;-72
2022/11/03 03:02:34;;;;;;;;;;;;;;;-144.99;77.63;52415.47;5094274;28;19912;-75
2022/11/03 03:05:04;;;;;;;;;;;;;;;-144.99;77.72;52435.88;5085455;28;19943;-73
2022/11/03 03:07:32;;;;;;;;;;;;;;;-144.99;77.62;52460.31;5082526;28;19924;-73
2022/11/03 03:10:00;;;;;;;;;;;;;;;-144.99;77.76;52448.09;5084105;28;20411;-73
2022/11/03 03:12:27;;;;;;;;;;;;;;;-144.99;78.01;52460.31;5081124;28;20046;-73
2022/11/03 03:14:55;;;;;;;;;;;;;;;-144.99;77.87;52419.56;5082319;28;19949;-74
2022/11/03 03:17:24;;;;;;;;;;;;;;;-144.99;78.30;52423.63;5092118;28;19993;-71
2022/11/03 03:19:53;;;;;;;;;;;;;;;-144.99;78.64;52399.19;5080129;28;20376;-73
2022/11/03 03:22:22;;;;;;;;;;;;;;;-144.99;78.25;52456.25;5091454;28;20439;-74
2022/11/03 03:24:52;;;;;;;;;;;;;;;-144.99;78.35;52444.03;5069851;28;20403;-72
2022/11/03 03:27:20;;;;;;;;;;;;;;;-144.99;78.32;52386.94;5085873;28;19965;-69
2022/11/03 03:29:50;;;;;;;;;;;;;;;-144.99;78.81;52468.47;5078968;28;19944;-71
2022/11/03 03:32:19;;;;;;;;;;;;;;;-144.99;79.07;52472.56;5072763;28;19958;-69
2022/11/03 03:34:48;;;;;;;;;;;;;;;-144.99;79.35;52448.09;5073471;28;19931;-70
2022/11/03 03:37:16;;;;;;;;;;;;;;;-144.99;79.39;52492.94;5082256;28;20081;-70
2022/11/03 03:39:46;;;;;;;;;;;;;;;-144.99;78.91;52456.25;5083120;28;19942;-69
2022/11/03 03:42:14;;;;;;;;;;;;;;;-144.99;79.63;52444.03;5071551;28;19943;-68
2022/11/03 03:44:41;;;;;;;;;;;;;;;-144.99;79.16;52435.88;5083188;28;20387;-70
2022/11/03 03:47:11;;;;;;;;;;;;;;;-144.99;79.86;52435.88;5085251;28;20073;-71
2022/11/03 03:49:37;;;;;;;;;;;;;;;-144.99;80.55;52446.06;5086461;28;20060;-71
2022/11/03 03:52:05;;;;;;;;;;;;;;;-144.99;80.15;52439.94;5071173;28;20038;-70
2022/11/03 03:54:32;;;;;;;;;;;;;;;-144.99;80.75;52466.44;5063295;28;19980;-70
2022/11/03 03:57:00;;;;;;;;;;;;;;;-144.99;81.12;52472.56;5084288;28;19959;-70
2022/11/03 03:59:27;;;;;;;;;;;;;;;-144.99;80.57;52403.25;5103630;28;19942;-70
2022/11/03 04:01:53;;;;;;;;;;;;;;;-144.99;80.83;52448.09;5085499;28;19986;-71
2022/11/03 04:04:20;;;;;;;;;;;;;;;-144.99;81.21;52452.16;5082757;28;20346;-71
2022/11/03 04:06:46;;;;;;;;;;;;;;;-144.99;81.17;52431.78;5074357;28;19994;-69
2022/11/03 04:09:14;;;;;;;;;;;;;;;-144.99;82.13;52448.09;5074325;28;19974;-70
2022/11/03 04:22:44;;;;;;;;;;;;;;;-144.99;82.85;52444.03;5102749;28;19953;-79
2022/11/03 04:25:11;;;;;;;;;;;;;;;-144.99;82.85;52460.31;5111284;27;19940;-78
2022/11/03 04:27:39;;;;;;;;;;;;;;;-144.99;83.34;52462.34;5103487;27;19961;-81
2022/11/03 04:30:10;;;;;;;;;;;;;;;-144.99;83.13;52452.16;5097395;28;20018;-81
2022/11/03 04:32:37;;;;;;;;;;;;;;;-144.99;83.39;52448.09;5093734;28;19990;-81
2022/11/03 04:35:07;;;;;;;;;;;;;;;-144.99;83.32;52444.03;5102705;28;20346;-79
2022/11/03 04:37:34;;;;;;;;;;;;;;;-144.99;83.72;52423.63;5099229;28;19966;-83
2022/11/03 04:40:01;;;;;;;;;;;;;;;-144.99;83.66;52466.44;5099548;28;19924;-77
2022/11/03 04:42:31;;;;;;;;;;;;;;;-144.99;83.71;52460.31;5089198;28;19961;-79
2022/11/03 04:44:59;;;;;;;;;;;;;;;-144.99;83.43;52476.63;5091518;28;19982;-79
2022/11/03 04:47:26;;;;;;;;;;;;;;;-144.99;83.32;52411.41;5103438;28;20321;-78
2022/11/03 04:49:52;;;;;;;;;;;;;;;-144.99;83.80;52431.78;5087791;28;19939;-75
2022/11/03 04:52:21;;;;;;;;;;;;;;;-144.99;83.80;52472.56;5086121;28;19945;-75
2022/11/03 04:54:49;;;;;;;;;;;;;;;-144.99;83.87;52460.31;5090298;28;19936;-76
2022/11/03 04:57:16;;;;;;;;;;;;;;;-144.99;84.01;52435.88;5099145;28;20002;-76
2022/11/03 04:59:45;;;;;;;;;;;;;;;-144.99;84.32;52448.09;5094528;28;19967;-79
2022/11/03 05:02:13;;;;;;;;;;;;;;;-144.99;85.70;52435.88;5093930;28;19941;-76
2022/11/03 05:04:39;;;;;;;;;;;;;;;-144.99;85.45;52448.09;5110711;28;19942;-77
2022/11/03 05:07:14;;;;;;;;;;;;;;;-144.99;85.32;52482.75;5088124;28;20344;-76
2022/11/03 05:09:40;;;;;;;;;;;;;;;-144.99;85.02;52439.94;5091144;28;20361;-76
2022/11/03 05:12:08;;;;;;;;;;;;;;;-144.99;84.91;52435.88;5081718;28;20383;-78
2022/11/03 05:14:37;;;;;;;;;;;;;;;-144.99;84.63;52452.16;5090613;28;19971;-77
2022/11/03 05:17:07;;;;;;;;;;;;;;;-144.99;85.12;52431.78;5081365;28;19967;-76
2022/11/03 05:19:36;;;;;;;;;;;;;;;-144.99;85.53;52413.44;5090925;28;20466;-81
2022/11/03 05:22:03;;;;;;;;;;;;;;;-144.99;88.53;52435.88;5089885;28;20072;-76
2022/11/03 05:24:30;;;;;;;;;;;;;;;-144.99;86.25;52448.09;5078691;28;20423;-78
2022/11/03 05:26:57;;;;;;;;;;;;;;;-144.99;86.64;52476.63;5087542;28;19965;-79
2022/11/03 05:29:25;;;;;;;;;;;;;;;-144.99;86.63;52439.94;5090414;28;19948;-78
2022/11/03 05:31:53;;;;;;;;;;;;;;;-144.99;86.77;52444.03;5085653;28;19971;-77
2022/11/03 05:34:35;;;;;;;;;;;;;;;-144.99;87.45;52444.03;5092856;28;19957;-80
2022/11/03 05:37:07;;;;;;;;;;;;;;;-144.99;86.87;52480.72;5094704;28;20098;-77
2022/11/03 05:39:34;;;;;;;;;;;;;;;-144.99;87.16;52444.03;5094936;28;19959;-81
2022/11/03 05:42:02;;;;;;;;;;;;;;;-144.99;87.02;52454.22;5092326;28;20031;-79
2022/11/03 05:44:32;;;;;;;;;;;;;;;-144.99;87.95;52431.78;5098800;28;20010;-80
2022/11/03 05:47:00;;;;;;;;;;;;;;;-144.99;87.03;52427.72;5100818;28;19963;-80
2022/11/03 05:49:27;;;;;;;;;;;;;;;-144.99;86.69;52454.22;5082041;28;20451;-81
2022/11/03 05:51:55;;;;;;;;;;;;;;;-144.99;87.41;52415.47;5088002;28;19996;-80
2022/11/03 05:54:23;;;;;;;;;;;;;;;-144.99;87.61;52460.31;5094263;28;19975;-81
2022/11/03 05:56:49;;;;;;;;;;;;;;;-144.99;87.88;52456.25;5096457;28;19937;-77
2022/11/03 05:59:19;;;;;;;;;;;;;;;-144.99;87.16;52448.09;5099558;28;19966;-80
2022/11/03 06:01:46;;;;;;;;;;;;;;;-144.99;88.02;52444.03;5092878;28;19930;-78
2022/11/03 06:04:15;;;;;;;;;;;;;;;-144.99;87.71;52421.59;5084651;28;19947;-77
2022/11/03 06:06:41;;;;;;;;;;;;;;;-144.99;87.92;52407.31;5085669;28;20320;-75
2022/11/03 06:09:12;;;;;;;;;;;;;;;-144.99;86.12;52419.56;5084780;28;20023;-77
2022/11/03 06:11:39;;;;;;;;;;;;;;;-144.99;85.65;52464.41;5087297;28;19940;-75
2022/11/03 06:14:12;;;;;;;;;;;;;;;-144.99;85.86;52450.13;5087055;28;20133;-77
2022/11/03 06:16:40;;;;;;;;;;;;;;;-144.99;85.89;52452.16;5085736;28;20338;-73
2022/11/03 06:19:18;;;;;;;;;;;;;;;-144.99;84.96;52444.03;5092065;28;19956;-79
2022/11/03 06:21:45;;;;;;;;;;;;;;;-144.99;85.82;52480.72;4386332;28;10001333;-75
2022/11/03 06:24:13;;;;;;;;;;;;;;;-144.99;85.38;52478.66;5078297;28;20339;-79
2022/11/03 06:26:41;;;;;;;;;;;;;;;-144.99;85.49;52423.63;5087432;28;20042;-80
2022/11/03 06:29:12;;;;;;;;;;;;;;;-144.99;86.47;52441.97;5091557;28;19960;-78
2022/11/03 06:31:38;;;;;;;;;;;;;;;-144.99;86.29;52399.19;5087926;28;19924;-76
2022/11/03 06:34:13;;;;;;;;;;;;;;;-144.99;86.57;52427.72;5101880;28;19945;-81
2022/11/03 06:36:40;;;;;;;;;;;;;;;-144.99;86.63;52403.25;5105511;28;19959;-80
2022/11/03 06:39:09;;;;;;;;;;;;;;;-144.99;86.67;52456.25;5096202;28;20372;-80
2022/11/03 06:41:37;;;;;;;;;;;;;;;-144.99;86.31;52393.06;5094310;28;19927;-79
2022/11/03 06:44:19;;;;;;;;;;;;;;;-144.99;86.04;52431.78;5100302;28;19954;-78
2022/11/03 06:46:45;;;;;;;;;;;;;;;-144.99;85.77;52431.78;5110275;28;19978;-81
2022/11/03 06:49:24;;;;;;;;;;;;;;;-144.99;85.72;52448.09;5111262;28;19988;-78
2022/11/03 06:51:50;;;;;;;;;;;;;;;-144.99;85.88;52460.31;5105153;28;19974;-76
2022/11/03 06:54:17;;;;;;;;;;;;;;;-144.99;85.63;52452.16;5094173;28;19996;-81
2022/11/03 06:56:45;;;;;;;;;;;;;;;-144.99;86.01;52423.63;5096828;28;19942;-81
2022/11/03 06:59:14;;;;;;;;;;;;;;;-144.99;85.49;52423.63;5103903;28;20032;-84
2022/11/03 07:01:40;;;;;;;;;;;;;;;-144.99;85.65;52378.78;5105558;28;19960;-84
2022/11/03 07:04:13;;;;;;;;;;;;;;;-144.99;85.87;52448.09;5098032;28;20428;-82
2022/11/03 07:06:39;;;;;;;;;;;;;;;-144.99;85.48;52419.56;5096827;28;19924;-81
2022/11/03 07:09:08;;;;;;;;;;;;;;;-144.99;85.26;52450.13;5085389;28;20051;-79
2022/11/03 07:11:37;;;;;;;;;;;;;;;-144.99;84.82;52413.44;5085902;28;19946;-80
2022/11/03 07:14:13;;;;;;;;;;;;;;;-144.99;85.25;52435.88;5086073;28;19958;-81
2022/11/03 07:16:41;;;;;;;;;;;;;;;-144.99;85.20;52435.88;5089910;28;19940;-82
2022/11/03 07:19:13;;;;;;;;;;;;;;;-144.99;85.28;52401.22;5081107;28;20494;-80
2022/11/03 07:21:41;;;;;;;;;;;;;;;-144.99;84.79;52423.63;5089520;28;20029;-81
2022/11/03 07:24:14;;;;;;;;;;;;;;;-144.99;85.39;52472.56;5089635;28;19942;-81
2022/11/03 07:26:40;;;;;;;;;;;;;;;-144.99;85.05;52458.28;5096336;28;20089;-78
2022/11/03 07:29:11;;;;;;;;;;;;;;;-144.99;84.71;52446.06;5105256;28;19958;-82
2022/11/03 07:31:37;;;;;;;;;;;;;;;-144.99;84.57;52439.94;5084636;28;19941;-80
2022/11/03 07:34:05;;;;;;;;;;;;;;;-144.99;84.18;52399.19;5088284;28;20023;-82
2022/11/03 07:36:32;;;;;;;;;;;;;;;-144.99;84.11;52395.09;5089960;28;20107;-80
2022/11/03 07:38:59;;;;;;;;;;;;;;;-144.99;84.52;52417.53;5096949;28;20265;-78
2022/11/03 07:41:27;;;;;;;;;;;;;;;-144.99;84.22;52403.25;5080314;28;20048;-78
2022/11/03 07:43:58;;;;;;;;;;;;;;;-144.99;84.13;52431.78;5090751;28;19943;-79
2022/11/03 07:46:26;;;;;;;;;;;;;;;-144.99;84.45;52435.88;5085819;28;20012;-79
2022/11/03 07:48:54;;;;;;;;;;;;;;;-144.99;84.81;52393.06;5090880;28;20073;-79
2022/11/03 07:51:22;;;;;;;;;;;;;;;-144.99;84.61;52370.63;5094111;28;20034;-80
2022/11/03 07:53:51;;;;;;;;;;;;;;;-144.99;84.21;52417.53;4731878;28;10000467;-78
2022/11/03 07:56:19;;;;;;;;;;;;;;;-144.99;83.99;52411.41;5094265;28;20765;-79
2022/11/03 07:58:46;;;;;;;;;;;;;;;-144.99;83.57;52391.03;5079170;28;19966;-80
2022/11/03 08:01:30;;;;;;;;;;;;;;;-144.99;83.61;52423.63;5090753;28;20040;-78
2022/11/03 08:04:00;;;;;;;;;;;;;;;-144.99;83.94;52435.88;5082537;28;20031;-81
2022/11/03 08:06:27;;;;;;;;;;;;;;;-144.99;84.62;52452.16;5093521;28;20063;-79
2022/11/03 08:08:53;;;;;;;;;;;;;;;-144.99;84.18;52399.19;5092202;28;19954;-81
2022/11/03 08:11:21;;;;;;;;;;;;;;;-144.99;83.80;52423.63;5107180;28;20600;-78
2022/11/03 08:13:48;;;;;;;;;;;;;;;-144.99;83.45;52411.41;5075046;28;19950;-80
2022/11/03 08:16:14;;;;;;;;;;;;;;;-144.99;83.45;52419.56;5095105;28;20015;-80
2022/11/03 08:18:40;;;;;;;;;;;;;;;-144.99;83.15;52423.63;5093085;28;20313;-80
2022/11/03 08:21:08;;;;;;;;;;;;;;;-144.99;82.57;52378.78;5094152;28;20035;-81
2022/11/03 08:23:35;;;;;;;;;;;;;;;-144.99;82.08;52460.31;5087260;28;19969;-82
2022/11/03 08:26:01;;;;;;;;;;;;;;;-144.99;81.51;52391.03;5092334;28;20299;-82
2022/11/03 08:28:28;;;;;;;;;;;;;;;-144.99;81.56;52421.59;5100231;28;20020;-82
2022/11/03 08:31:00;;;;;;;;;;;;;;;-144.99;81.35;52407.31;5094514;27;19950;-83
2022/11/03 08:33:26;;;;;;;;;;;;;;;-144.99;81.89;52468.47;5089298;28;19946;-81
2022/11/03 08:35:53;;;;;;;;;;;;;;;-144.99;81.30;52395.09;5089315;28;19938;-81
2022/11/03 08:38:20;;;;;;;;;;;;;;;-144.99;80.54;52388.97;5100446;28;19962;-80
2022/11/03 08:40:47;;;;;;;;;;;;;;;-144.99;80.66;52425.66;5093113;28;20100;-78
2022/11/03 08:43:13;;;;;;;;;;;;;;;-144.99;80.09;52403.25;5101520;28;19972;-84
2022/11/03 08:45:40;;;;;;;;;;;;;;;-144.99;80.18;52393.06;5102493;28;20029;-78
2022/11/03 08:48:06;;;;;;;;;;;;;;;-144.99;80.28;52415.47;5102641;28;19966;-80
2022/11/03 08:50:33;;;;;;;;;;;;;;;-144.99;79.92;52370.63;5103394;28;20461;-81
2022/11/03 08:52:59;;;;;;;;;;;;;;;-144.99;79.56;52358.41;5094423;28;20031;-79
2022/11/03 08:55:27;;;;;;;;;;;;;;;-144.99;78.91;52386.94;5094812;28;20168;-81
2022/11/03 08:57:53;;;;;;;;;;;;;;;-144.99;78.11;52391.03;5102246;27;20404;-81
2022/11/03 09:00:20;;;;;;;;;;;;;;;-144.99;77.26;52372.69;5094692;28;19956;-81
2022/11/03 09:02:46;;;;;;;;;;;;;;;-144.99;76.50;52388.97;5088978;28;19954;-84
2022/11/03 09:05:13;;;;;;;;;;;;;;;-144.99;75.60;52391.03;5093955;28;20009;-79
2022/11/03 09:07:40;;;;;;;;;;;;;;;-144.99;74.71;52395.09;5089046;28;20204;-83
2022/11/03 09:10:08;;;;;;;;;;;;;;;-144.99;73.43;52395.09;5091163;28;19949;-82
2022/11/03 09:12:35;;;;;;;;;;;;;;;-144.99;72.48;52399.19;5096878;28;19941;-83
2022/11/03 09:15:02;;;;;;;;;;;;;;;-144.99;71.57;52364.53;5092986;28;20071;-81
2022/11/03 09:17:28;;;;;;;;;;;;;;;-144.99;70.54;52338.03;5117341;27;19961;-83
2022/11/03 09:19:55;;;;;;;;;;;;;;;-144.99;69.33;52356.38;5118516;27;19959;-81
2022/11/03 09:22:22;;;;;;;;;;;;;;;-144.99;68.83;52354.34;5086616;28;20393;-83
2022/11/03 09:24:48;;;;;;;;;;;;;;;-144.99;69.18;52366.56;5084245;28;20041;-83
2022/11/03 09:27:15;;;;;;;;;;;;;;;-144.99;69.37;52370.63;5102107;28;20008;-84
2022/11/03 09:29:42;;;;;;;;;;;;;;;-144.99;70.06;52362.50;5098985;28;19931;-81
2022/11/03 09:32:09;;;;;;;;;;;;;;;-144.99;70.32;52309.50;5090405;28;20799;-78
2022/11/03 09:34:36;;;;;;;;;;;;;;;-144.99;70.05;52350.25;5089772;28;19928;-81
2022/11/03 09:37:02;;;;;;;;;;;;;;;-144.99;69.87;52368.59;5096568;28;19993;-81
2022/11/03 09:39:28;;;;;;;;;;;;;;;-144.99;69.37;52358.41;5100513;28;19938;-85
2022/11/03 09:41:56;;;;;;;;;;;;;;;-144.99;69.00;52399.19;5109070;28;19976;-85
2022/11/03 09:44:23;;;;;;;;;;;;;;;-144.99;69.36;52342.09;5108665;28;19957;-83
2022/11/03 09:46:51;;;;;;;;;;;;;;;-144.99;69.14;52378.78;5107740;28;20019;-80
2022/11/03 09:49:19;;;;;;;;;;;;;;;-144.99;69.33;52382.88;5114913;27;19969;-85
2022/11/03 09:51:46;;;;;;;;;;;;;;;-144.99;67.73;52382.88;5095211;28;19958;-83
2022/11/03 09:54:14;;;;;;;;;;;;;;;-144.99;67.16;52362.50;5086521;28;20020;-83
2022/11/03 09:56:40;;;;;;;;;;;;;;;-144.99;66.16;52378.78;5089079;28;19943;-81
2022/11/03 09:59:15;;;;;;;;;;;;;;;-144.99;64.00;52321.72;5102048;28;20051;-82
2022/11/03 10:01:42;;;;;;;;;;;;;;;-144.99;61.78;52303.38;5100830;28;19944;-82
2022/11/03 10:04:11;;;;;;;;;;;;;;;-144.99;60.28;52313.56;5094260;28;20278;-78
2022/11/03 10:06:38;;;;;;;;;;;;;;;-144.99;59.38;52272.81;5102765;28;19924;-80
2022/11/03 10:09:06;;;;;;;;;;;;;;;-144.99;58.86;52309.50;5087729;28;20438;-79
2022/11/03 10:11:33;;;;;;;;;;;;;;;-144.99;58.65;52321.72;5088187;28;19928;-80
2022/11/03 10:14:00;;;;;;;;;;;;;;;-144.99;58.30;52358.41;5086513;28;20206;-83
2022/11/03 10:16:26;;;;;;;;;;;;;;;-144.99;58.71;52329.88;5092783;28;19936;-81
2022/11/03 10:21:27;;;;;;;;;;;;;;;-144.99;62.10;52374.72;5061299;28;20115;-74
2022/11/03 10:23:53;;;;;;;;;;;;;;;-144.99;61.99;52391.03;5052173;28;19984;-73
2022/11/03 10:26:20;;;;;;;;;;;;;;;-144.99;62.91;52325.81;5061636;28;19962;-75
2022/11/03 10:29:00;;;;;;;;;;;;;;;-144.99;62.89;52356.38;5055940;28;20229;-74
2022/11/03 10:31:32;;;;;;;;;;;;;;;-144.99;63.22;52356.38;5044440;28;19998;-75
2022/11/03 10:33:58;;;;;;;;;;;;;;;-144.99;62.67;52325.81;5044112;28;19994;-73
2022/11/03 10:36:27;;;;;;;;;;;;;;;-144.99;63.39;52399.19;5045406;28;19957;-74
2022/11/03 10:38:54;;;;;;;;;;;;;;;-144.99;63.46;52391.03;5044209;28;19940;-74
2022/11/03 10:41:21;;;;;;;;;;;;;;;-144.99;63.85;52342.09;5045290;28;19973;-73
2022/11/03 10:43:59;;;;;;;;;;;;;;;-144.99;64.78;52342.09;5046489;28;19992;-74
2022/11/03 10:46:26;;;;;;;;;;;;;;;-144.99;63.98;52380.84;5042932;28;19994;-73
2022/11/03 10:49:02;;;;;;;;;;;;;;;-144.99;64.37;52350.25;5042691;28;19979;-72
2022/11/03 10:51:29;;;;;;;;;;;;;;;-144.99;65.15;52411.41;5036710;28;20400;-73
2022/11/03 10:53:56;;;;;;;;;;;;;;;-144.99;64.71;52374.72;5037875;28;19947;-73
2022/11/03 10:56:22;;;;;;;;;;;;;;;-144.99;64.85;52370.63;5038710;28;19965;-76
2022/11/03 10:58:49;;;;;;;;;;;;;;;-144.99;64.59;52370.63;5056263;28;19968;-75
2022/11/03 11:01:15;;;;;;;;;;;;;;;-144.99;63.99;52397.13;5051917;28;20389;-75
2022/11/03 11:03:43;;;;;;;;;;;;;;;-144.99;64.24;52360.44;5052017;28;19956;-74
2022/11/03 11:06:18;;;;;;;;;;;;;;;-144.99;64.82;52358.41;5056078;28;19929;-75
2022/11/03 11:08:46;;;;;;;;;;;;;;;-144.99;64.78;52374.72;5047944;28;20345;-75
2022/11/03 11:11:14;;;;;;;;;;;;;;;-144.99;64.90;52366.56;5047557;28;19958;-73
2022/11/03 11:13:41;;;;;;;;;;;;;;;-144.99;64.69;52364.53;5048624;28;19965;-74
2022/11/03 11:16:27;;;;;;;;;;;;;;;-144.99;64.41;52368.59;5046176;28;19973;-74
2022/11/03 11:19:03;;;;;;;;;;;;;;;-144.99;63.83;52362.50;5048118;28;20481;-75
2022/11/03 11:21:48;;;;;;;;;;;;;;;-144.99;62.87;52321.72;5048261;28;20074;-74
2022/11/03 11:24:36;;;;;;;;;;;;;;;-144.99;61.40;52333.94;5030836;28;20039;-73
2022/11/03 11:27:02;;;;;;;;;;;;;;;-144.99;61.14;52317.66;5048127;28;19992;-74
2022/11/03 11:29:37;;;;;;;;;;;;;;;-144.99;60.44;52315.59;5048451;28;20205;-72
2022/11/03 11:32:22;;;;;;;;;;;;;;;-144.99;60.01;52329.88;5036637;28;20324;-74
2022/11/03 11:34:49;;;;;;;;;;;;;;;-144.99;60.90;52366.56;5048025;28;20236;-78
2022/11/03 11:37:35;;;;;;;;;;;;;;;-144.99;61.39;52374.72;5035923;28;19994;-75
2022/11/03 11:40:03;;;;;;;;;;;;;;;-144.99;61.88;52325.81;5049395;28;19967;-74
2022/11/03 11:42:30;;;;;;;;;;;;;;;-144.99;61.77;52358.41;5047859;28;19951;-75
2022/11/03 11:44:57;;;;;;;;;;;;;;;-144.99;61.98;52358.41;5048235;28;20434;-73
2022/11/03 11:47:32;;;;;;;;;;;;;;;-144.99;61.63;52327.84;5047808;28;19943;-75
2022/11/03 11:50:20;;;;;;;;;;;;;;;-144.99;62.26;52358.41;5048623;28;19958;-73
2022/11/03 11:52:48;;;;;;;;;;;;;;;-144.99;62.81;52354.34;5047015;28;20037;-73
2022/11/03 11:55:22;;;;;;;;;;;;;;;-144.99;62.84;52331.91;5042607;28;20410;-74
2022/11/03 11:57:49;;;;;;;;;;;;;;;-144.99;63.18;52350.25;5053657;28;20197;-74
2022/11/03 12:00:19;;;;;;;;;;;;;;;-144.99;63.55;52376.75;5072528;28;19987;-75
2022/11/03 12:02:46;;;;;;;;;;;;;;;-144.99;63.59;52342.09;5064961;28;19984;-74
2022/11/03 12:05:17;;;;;;;;;;;;;;;-144.99;63.47;52344.16;5043613;28;20068;-73
2022/11/03 12:07:44;;;;;;;;;;;;;;;-144.99;63.02;52391.03;5040340;28;19967;-77
2022/11/03 12:10:14;;;;;;;;;;;;;;;-144.99;63.20;52352.28;5047917;28;19992;-73
2022/11/03 12:12:42;;;;;;;;;;;;;;;-144.99;62.87;52358.41;5047078;28;19948;-72
2022/11/03 12:15:23;;;;;;;;;;;;;;;-144.99;63.06;52362.50;5046129;28;20045;-73
2022/11/03 12:17:49;;;;;;;;;;;;;;;-144.99;63.04;52350.25;5042161;28;20167;-74
2022/11/03 12:20:35;;;;;;;;;;;;;;;-144.99;62.91;52391.03;5047320;28;20336;-74
2022/11/03 12:23:01;;;;;;;;;;;;;;;-144.99;62.70;52411.41;5045825;28;19947;-73
2022/11/03 12:25:32;;;;;;;;;;;;;;;-144.99;62.34;52407.31;5042790;28;20057;-75
2022/11/03 12:28:00;;;;;;;;;;;;;;;-144.99;62.72;52362.50;5037369;28;20361;-74
2022/11/03 12:30:27;;;;;;;;;;;;;;;-144.99;62.97;52386.94;5026120;28;20125;-75
2022/11/03 12:32:53;;;;;;;;;;;;;;;-144.99;62.66;52358.41;5047653;28;20041;-73
2022/11/03 12:35:19;;;;;;;;;;;;;;;-144.99;62.73;52374.72;5044638;28;19952;-73
2022/11/03 12:37:46;;;;;;;;;;;;;;;-144.99;62.62;52342.09;5034585;28;19990;-74
2022/11/03 12:40:13;;;;;;;;;;;;;;;-144.99;62.44;52350.25;5033063;28;20111;-74
2022/11/03 12:42:39;;;;;;;;;;;;;;;-144.99;61.61;52319.69;5047382;28;19945;-74
2022/11/03 12:45:08;;;;;;;;;;;;;;;-144.99;60.79;52311.53;5037969;28;20047;-75
2022/11/03 12:47:34;;;;;;;;;;;;;;;-144.99;60.44;52293.19;5048517;28;19984;-74
2022/11/03 12:50:01;;;;;;;;;;;;;;;-144.99;59.61;52336.00;5048175;28;20257;-76
2022/11/03 12:52:27;;;;;;;;;;;;;;;-144.99;59.54;52342.09;5047195;28;19957;-75